Biotrans — JWPN — position and weather

sailwx.info

Track history (hours):
 
Tides and Currents Weather Stations Pressure Air Temp Water Temp Dewpoint Dewpoint Depression Visibility Wind Speed Wind Dir Waves Ship Positions

Biotrans

Last reported at 2016-Jul-24 17:15 UTC. Time now 2016-Jul-26 16:03 UTC.
Position N 69°20' E 018°03'.

Length 55 m; draft 5.5 m.

Type: Cargo ship. MMSI: 259260000.

Date/timePositionNaut miles runAvg speedWind from/ knotsBaromVisibWave heightAir tempDewpointWater temp
2016-Jul-24 17:15N 69°20' E 018°03'6 8.2
2016-Jul-24 16:33N 69°15' E 017°58'7 6.5
2016-Jul-24 15:33N 69°09' E 017°49'9 8.9
2016-Jul-24 14:31N 69°05' E 017°25'103 5.1
2016-Jul-23 18:16N 67°44' E 014°31'8 9.0
2016-Jul-23 17:25N 67°36' E 014°30'8 9.1
2016-Jul-23 16:34N 67°29' E 014°28'9 8.7
2016-Jul-23 15:33N 67°20' E 014°21'9 9.1
2016-Jul-23 14:33N 67°13' E 014°08'10 9.2
2016-Jul-23 13:31N 67°05' E 013°55'11 8.9
2016-Jul-23 12:19N 66°58' E 013°33'20 6.7
2016-Jul-23 09:20N 66°43' E 013°01'8 8.7
2016-Jul-23 08:27N 66°39' E 012°44'7 8.2
2016-Jul-23 07:33N 66°31' E 012°43'8 8.5
2016-Jul-23 06:33N 66°23' E 012°47'14 6.8
2016-Jul-23 04:33N 66°13' E 012°24'54 4.9
2016-Jul-22 17:30N 65°20' E 012°02'8 8.9
2016-Jul-22 16:33N 65°12' E 011°53'9 8.7
2016-Jul-22 15:34N 65°04' E 011°45'8 8.3
2016-Jul-22 14:33N 65°01' E 011°28'9 8.5
2016-Jul-22 13:33N 64°60' E 011°08'3 2.5
2016-Jul-22 12:33N 65°00' E 011°02'22 0.5
2016-Jul-20 17:31N 64°38' E 011°10'3 3.6
2016-Jul-20 16:34N 64°36' E 011°16'7 6.9
2016-Jul-20 15:33N 64°41' E 011°07'7 6.8
2016-Jul-20 14:33N 64°46' E 010°56'3 2.9
2016-Jul-20 13:34N 64°48' E 011°02'2 1.9
2016-Jul-20 12:32N 64°48' E 010°57'5 4.7
2016-Jul-20 11:33N 64°49' E 011°08'8 8.1
2016-Jul-20 10:33N 64°54' E 011°22'9 8.9
2016-Jul-20 09:34N 65°00' E 011°38'9 8.4
2016-Jul-20 08:33N 65°07' E 011°49'9 8.9
2016-Jul-20 07:31N 65°16' E 011°57'68 6.2
2016-Jul-19 20:29N 66°20' E 012°52'8 8.8
2016-Jul-19 19:33N 66°28' E 012°45'9 8.9
2016-Jul-19 18:30N 66°37' E 012°42'34 8.4
2016-Jul-19 14:26N 67°01' E 013°44'6 3.0
2016-Jul-19 12:33N 67°06' E 013°52'1 1.0
2016-Jul-19 11:33N 67°05' E 013°51'6 6.1
2016-Jul-19 10:34N 67°09' E 014°02'8 8.3
2016-Jul-19 09:33N 67°16' E 014°13'8 8.2
2016-Jul-19 08:33N 67°23' E 014°25'8 8.3
2016-Jul-19 07:33N 67°31' E 014°29'13 0.7
2016-Jul-18 12:26N 67°44' E 014°31'9 8.8
2016-Jul-18 11:26N 67°35' E 014°30'8 9.0
2016-Jul-18 10:33N 67°27' E 014°28'9 9.0
2016-Jul-18 09:33N 67°19' E 014°18'9 9.3
2016-Jul-18 08:33N 67°11' E 014°06'9 9.2
2016-Jul-18 07:33N 67°04' E 013°53'9 9.1
2016-Jul-18 06:33N 66°58' E 013°34'26 8.1
2016-Jul-18 03:21N 66°40' E 012°47'6 8.0
2016-Jul-18 02:33N 66°34' E 012°42'9 8.6
2016-Jul-18 01:33N 66°25' E 012°44'6 0.6
2016-Jul-17 16:32N 66°21' E 012°52'8 8.0
2016-Jul-17 15:33N 66°28' E 012°45'9 8.6
2016-Jul-17 14:33N 66°36' E 012°42'25 8.3
2016-Jul-17 11:29N 66°54' E 013°28'7 7.9
2016-Jul-17 10:33N 67°00' E 013°39'7 6.7
2016-Jul-17 09:33N 67°05' E 013°51'4 4.3
2016-Jul-17 08:33N 67°07' E 014°00'8 8.2
2016-Jul-17 07:33N 67°14' E 014°10'8 8.3
2016-Jul-17 06:33N 67°21' E 014°22'17 8.4
2016-Jul-17 04:32N 67°38' E 014°30'83 7.9
2016-Jul-16 18:07N 68°44' E 016°45'15 9.1
2016-Jul-16 16:28N 68°56' E 017°07'11 8.9
2016-Jul-16 15:15N 69°05' E 017°25'7 9.4
2016-Jul-16 14:33N 69°08' E 017°41'8 7.9
2016-Jul-16 13:33N 69°13' E 017°59'  
Track history (hours):
 
Tides and Currents Weather Stations Pressure Air Temp Water Temp Dewpoint Dewpoint Depression Visibility Wind Speed Wind Dir Waves Ship Positions

Biotrans

Last reported at 2016-Jul-24 17:15 UTC. Time now 2016-Jul-26 16:03 UTC.
Position N 69°20' E 018°03'.

Length 55 m; draft 5.5 m.

Type: Cargo ship. MMSI: 259260000.

Date/timePositionNaut miles runAvg speedWind from/ knotsBaromVisibWave heightAir tempDewpointWater temp
2016-Jul-24 17:15N 69°20' E 018°03'6 8.2
2016-Jul-24 16:33N 69°15' E 017°58'7 6.5
2016-Jul-24 15:33N 69°09' E 017°49'9 8.9
2016-Jul-24 14:31N 69°05' E 017°25'103 5.1
2016-Jul-23 18:16N 67°44' E 014°31'8 9.0
2016-Jul-23 17:25N 67°36' E 014°30'8 9.1
2016-Jul-23 16:34N 67°29' E 014°28'9 8.7
2016-Jul-23 15:33N 67°20' E 014°21'9 9.1
2016-Jul-23 14:33N 67°13' E 014°08'10 9.2
2016-Jul-23 13:31N 67°05' E 013°55'11 8.9
2016-Jul-23 12:19N 66°58' E 013°33'20 6.7
2016-Jul-23 09:20N 66°43' E 013°01'8 8.7
2016-Jul-23 08:27N 66°39' E 012°44'7 8.2
2016-Jul-23 07:33N 66°31' E 012°43'8 8.5
2016-Jul-23 06:33N 66°23' E 012°47'14 6.8
2016-Jul-23 04:33N 66°13' E 012°24'54 4.9
2016-Jul-22 17:30N 65°20' E 012°02'8 8.9
2016-Jul-22 16:33N 65°12' E 011°53'9 8.7
2016-Jul-22 15:34N 65°04' E 011°45'8 8.3
2016-Jul-22 14:33N 65°01' E 011°28'9 8.5
2016-Jul-22 13:33N 64°60' E 011°08'3 2.5
2016-Jul-22 12:33N 65°00' E 011°02'22 0.5
2016-Jul-20 17:31N 64°38' E 011°10'3 3.6
2016-Jul-20 16:34N 64°36' E 011°16'7 6.9
2016-Jul-20 15:33N 64°41' E 011°07'7 6.8
2016-Jul-20 14:33N 64°46' E 010°56'3 2.9
2016-Jul-20 13:34N 64°48' E 011°02'2 1.9
2016-Jul-20 12:32N 64°48' E 010°57'5 4.7
2016-Jul-20 11:33N 64°49' E 011°08'8 8.1
2016-Jul-20 10:33N 64°54' E 011°22'9 8.9
2016-Jul-20 09:34N 65°00' E 011°38'9 8.4
2016-Jul-20 08:33N 65°07' E 011°49'9 8.9
2016-Jul-20 07:31N 65°16' E 011°57'68 6.2
2016-Jul-19 20:29N 66°20' E 012°52'8 8.8
2016-Jul-19 19:33N 66°28' E 012°45'9 8.9
2016-Jul-19 18:30N 66°37' E 012°42'34 8.4
2016-Jul-19 14:26N 67°01' E 013°44'6 3.0
2016-Jul-19 12:33N 67°06' E 013°52'1 1.0
2016-Jul-19 11:33N 67°05' E 013°51'6 6.1
2016-Jul-19 10:34N 67°09' E 014°02'8 8.3
2016-Jul-19 09:33N 67°16' E 014°13'8 8.2
2016-Jul-19 08:33N 67°23' E 014°25'8 8.3
2016-Jul-19 07:33N 67°31' E 014°29'13 0.7
2016-Jul-18 12:26N 67°44' E 014°31'9 8.8
2016-Jul-18 11:26N 67°35' E 014°30'8 9.0
2016-Jul-18 10:33N 67°27' E 014°28'9 9.0
2016-Jul-18 09:33N 67°19' E 014°18'9 9.3
2016-Jul-18 08:33N 67°11' E 014°06'9 9.2
2016-Jul-18 07:33N 67°04' E 013°53'9 9.1
2016-Jul-18 06:33N 66°58' E 013°34'26 8.1
2016-Jul-18 03:21N 66°40' E 012°47'6 8.0
2016-Jul-18 02:33N 66°34' E 012°42'9 8.6
2016-Jul-18 01:33N 66°25' E 012°44'6 0.6
2016-Jul-17 16:32N 66°21' E 012°52'8 8.0
2016-Jul-17 15:33N 66°28' E 012°45'9 8.6
2016-Jul-17 14:33N 66°36' E 012°42'25 8.3
2016-Jul-17 11:29N 66°54' E 013°28'7 7.9
2016-Jul-17 10:33N 67°00' E 013°39'7 6.7
2016-Jul-17 09:33N 67°05' E 013°51'4 4.3
2016-Jul-17 08:33N 67°07' E 014°00'8 8.2
2016-Jul-17 07:33N 67°14' E 014°10'8 8.3
2016-Jul-17 06:33N 67°21' E 014°22'17 8.4
2016-Jul-17 04:32N 67°38' E 014°30'83 7.9
2016-Jul-16 18:07N 68°44' E 016°45'15 9.1
2016-Jul-16 16:28N 68°56' E 017°07'11 8.9
2016-Jul-16 15:15N 69°05' E 017°25'7 9.4
2016-Jul-16 14:33N 69°08' E 017°41'8 7.9
2016-Jul-16 13:33N 69°13' E 017°59'  

Dump ship's entire track history